sensor_id;sensor_type;location;lat;lon;timestamp;P1;durP1;ratioP1;P2;durP2;ratioP2
7029;SDS011;3556;53.500;10.176;2023-08-06T00:02:23;2.50;;;2.30;;
7029;SDS011;3556;53.500;10.176;2023-08-06T00:04:48;2.07;;;1.90;;
7029;SDS011;3556;53.500;10.176;2023-08-06T00:07:14;2.47;;;2.17;;
7029;SDS011;3556;53.500;10.176;2023-08-06T00:09:39;2.60;;;2.40;;
7029;SDS011;3556;53.500;10.176;2023-08-06T00:12:05;2.60;;;2.40;;
7029;SDS011;3556;53.500;10.176;2023-08-06T00:14:31;5.23;;;2.20;;
7029;SDS011;3556;53.500;10.176;2023-08-06T00:16:56;3.73;;;2.60;;
7029;SDS011;3556;53.500;10.176;2023-08-06T00:19:22;2.40;;;2.20;;
7029;SDS011;3556;53.500;10.176;2023-08-06T00:21:47;2.83;;;2.50;;
7029;SDS011;3556;53.500;10.176;2023-08-06T00:24:13;2.53;;;2.33;;
7029;SDS011;3556;53.500;10.176;2023-08-06T00:26:39;3.40;;;2.77;;
7029;SDS011;3556;53.500;10.176;2023-08-06T00:29:04;3.90;;;2.80;;
7029;SDS011;3556;53.500;10.176;2023-08-06T00:31:30;3.90;;;2.60;;
7029;SDS011;3556;53.500;10.176;2023-08-06T00:33:56;3.30;;;2.43;;
7029;SDS011;3556;53.500;10.176;2023-08-06T00:36:21;3.17;;;2.97;;
7029;SDS011;3556;53.500;10.176;2023-08-06T00:38:47;3.63;;;2.63;;
7029;SDS011;3556;53.500;10.176;2023-08-06T00:41:12;3.50;;;3.07;;
7029;SDS011;3556;53.500;10.176;2023-08-06T00:43:38;4.07;;;3.40;;
7029;SDS011;3556;53.500;10.176;2023-08-06T00:46:04;5.90;;;3.20;;
7029;SDS011;3556;53.500;10.176;2023-08-06T00:48:30;5.80;;;3.07;;
7029;SDS011;3556;53.500;10.176;2023-08-06T00:50:56;3.43;;;3.13;;
7029;SDS011;3556;53.500;10.176;2023-08-06T00:53:22;6.03;;;3.50;;
7029;SDS011;3556;53.500;10.176;2023-08-06T00:55:48;5.23;;;3.60;;
7029;SDS011;3556;53.500;10.176;2023-08-06T00:58:13;4.47;;;3.60;;
7029;SDS011;3556;53.500;10.176;2023-08-06T01:00:40;5.83;;;3.47;;
7029;SDS011;3556;53.500;10.176;2023-08-06T01:03:06;3.80;;;3.30;;
7029;SDS011;3556;53.500;10.176;2023-08-06T01:05:32;3.93;;;3.60;;
7029;SDS011;3556;53.500;10.176;2023-08-06T01:13:46;4.83;;;3.40;;
7029;SDS011;3556;53.500;10.176;2023-08-06T01:16:17;5.00;;;3.60;;
7029;SDS011;3556;53.500;10.176;2023-08-06T01:18:46;3.87;;;3.57;;
7029;SDS011;3556;53.500;10.176;2023-08-06T01:21:14;5.47;;;3.73;;
7029;SDS011;3556;53.500;10.176;2023-08-06T01:23:41;4.40;;;4.00;;
7029;SDS011;3556;53.500;10.176;2023-08-06T01:26:12;4.73;;;3.77;;
7029;SDS011;3556;53.500;10.176;2023-08-06T01:29:05;8.23;;;4.13;;
7029;SDS011;3556;53.500;10.176;2023-08-06T01:31:44;6.73;;;3.90;;
7029;SDS011;3556;53.500;10.176;2023-08-06T01:34:17;6.20;;;5.03;;
7029;SDS011;3556;53.500;10.176;2023-08-06T01:36:45;7.40;;;4.80;;
7029;SDS011;3556;53.500;10.176;2023-08-06T01:39:11;7.17;;;4.97;;
7029;SDS011;3556;53.500;10.176;2023-08-06T01:41:37;6.30;;;4.90;;
7029;SDS011;3556;53.500;10.176;2023-08-06T01:44:02;7.40;;;5.10;;
7029;SDS011;3556;53.500;10.176;2023-08-06T01:46:28;6.60;;;4.50;;
7029;SDS011;3556;53.500;10.176;2023-08-06T01:48:54;6.50;;;4.50;;
7029;SDS011;3556;53.500;10.176;2023-08-06T01:51:19;6.23;;;4.67;;
7029;SDS011;3556;53.500;10.176;2023-08-06T01:53:45;6.83;;;4.33;;
7029;SDS011;3556;53.500;10.176;2023-08-06T01:56:11;5.37;;;3.93;;
7029;SDS011;3556;53.500;10.176;2023-08-06T01:58:36;5.07;;;4.23;;
7029;SDS011;3556;53.500;10.176;2023-08-06T02:01:02;5.67;;;4.40;;
7029;SDS011;3556;53.500;10.176;2023-08-06T02:03:27;4.97;;;3.93;;
7029;SDS011;3556;53.500;10.176;2023-08-06T02:05:53;6.47;;;4.37;;
7029;SDS011;3556;53.500;10.176;2023-08-06T02:08:19;4.67;;;4.20;;
7029;SDS011;3556;53.500;10.176;2023-08-06T02:10:45;7.87;;;4.70;;
7029;SDS011;3556;53.500;10.176;2023-08-06T02:13:11;5.40;;;4.90;;
7029;SDS011;3556;53.500;10.176;2023-08-06T02:15:41;9.20;;;4.67;;
7029;SDS011;3556;53.500;10.176;2023-08-06T02:18:08;6.47;;;4.40;;
7029;SDS011;3556;53.500;10.176;2023-08-06T02:20:33;7.00;;;5.00;;
7029;SDS011;3556;53.500;10.176;2023-08-06T02:22:59;7.33;;;5.00;;
7029;SDS011;3556;53.500;10.176;2023-08-06T02:25:25;5.80;;;4.77;;
7029;SDS011;3556;53.500;10.176;2023-08-06T02:27:50;7.33;;;4.73;;
7029;SDS011;3556;53.500;10.176;2023-08-06T02:30:16;5.23;;;4.47;;
7029;SDS011;3556;53.500;10.176;2023-08-06T02:32:41;5.27;;;4.47;;
7029;SDS011;3556;53.500;10.176;2023-08-06T02:35:07;5.20;;;4.70;;
7029;SDS011;3556;53.500;10.176;2023-08-06T02:37:33;5.73;;;4.60;;
7029;SDS011;3556;53.500;10.176;2023-08-06T02:39:59;7.53;;;4.93;;
7029;SDS011;3556;53.500;10.176;2023-08-06T02:42:25;4.70;;;4.20;;
7029;SDS011;3556;53.500;10.176;2023-08-06T02:44:51;5.70;;;4.67;;
7029;SDS011;3556;53.500;10.176;2023-08-06T02:47:19;4.90;;;4.33;;
7029;SDS011;3556;53.500;10.176;2023-08-06T02:49:45;5.20;;;4.43;;
7029;SDS011;3556;53.500;10.176;2023-08-06T02:52:11;4.73;;;4.20;;
7029;SDS011;3556;53.500;10.176;2023-08-06T02:54:36;5.70;;;4.37;;
7029;SDS011;3556;53.500;10.176;2023-08-06T02:57:02;5.00;;;3.70;;
7029;SDS011;3556;53.500;10.176;2023-08-06T02:59:28;10.17;;;4.50;;
7029;SDS011;3556;53.500;10.176;2023-08-06T03:01:53;5.10;;;4.23;;
7029;SDS011;3556;53.500;10.176;2023-08-06T03:04:19;6.10;;;4.00;;
7029;SDS011;3556;53.500;10.176;2023-08-06T03:06:45;8.13;;;4.63;;
7029;SDS011;3556;53.500;10.176;2023-08-06T03:09:10;5.13;;;4.47;;
7029;SDS011;3556;53.500;10.176;2023-08-06T03:11:36;4.63;;;4.23;;
7029;SDS011;3556;53.500;10.176;2023-08-06T03:14:01;6.10;;;4.10;;
7029;SDS011;3556;53.500;10.176;2023-08-06T03:16:27;5.40;;;4.30;;
7029;SDS011;3556;53.500;10.176;2023-08-06T03:18:52;5.50;;;4.20;;
7029;SDS011;3556;53.500;10.176;2023-08-06T03:21:18;8.13;;;4.60;;
7029;SDS011;3556;53.500;10.176;2023-08-06T03:23:46;6.37;;;4.50;;
7029;SDS011;3556;53.500;10.176;2023-08-06T03:26:13;5.23;;;4.10;;
7029;SDS011;3556;53.500;10.176;2023-08-06T03:28:39;5.33;;;4.27;;
7029;SDS011;3556;53.500;10.176;2023-08-06T03:31:04;10.20;;;4.53;;
7029;SDS011;3556;53.500;10.176;2023-08-06T03:33:30;6.20;;;3.60;;
7029;SDS011;3556;53.500;10.176;2023-08-06T03:35:56;5.57;;;3.70;;
7029;SDS011;3556;53.500;10.176;2023-08-06T03:38:22;6.60;;;4.50;;
7029;SDS011;3556;53.500;10.176;2023-08-06T03:40:48;5.30;;;3.93;;
7029;SDS011;3556;53.500;10.176;2023-08-06T03:43:14;5.47;;;4.23;;
7029;SDS011;3556;53.500;10.176;2023-08-06T03:45:40;7.40;;;4.47;;
7029;SDS011;3556;53.500;10.176;2023-08-06T03:48:06;9.50;;;4.30;;
7029;SDS011;3556;53.500;10.176;2023-08-06T03:50:32;7.43;;;3.97;;
7029;SDS011;3556;53.500;10.176;2023-08-06T03:52:57;7.80;;;4.23;;
7029;SDS011;3556;53.500;10.176;2023-08-06T03:55:23;11.87;;;4.43;;
7029;SDS011;3556;53.500;10.176;2023-08-06T03:57:48;6.90;;;3.77;;
7029;SDS011;3556;53.500;10.176;2023-08-06T04:00:14;6.37;;;3.40;;
7029;SDS011;3556;53.500;10.176;2023-08-06T04:02:40;5.33;;;4.37;;
7029;SDS011;3556;53.500;10.176;2023-08-06T04:05:05;5.80;;;3.70;;
7029;SDS011;3556;53.500;10.176;2023-08-06T04:07:31;4.20;;;3.80;;
7029;SDS011;3556;53.500;10.176;2023-08-06T04:09:57;4.80;;;4.03;;
7029;SDS011;3556;53.500;10.176;2023-08-06T04:12:24;4.57;;;3.70;;
7029;SDS011;3556;53.500;10.176;2023-08-06T04:14:50;7.00;;;4.50;;
7029;SDS011;3556;53.500;10.176;2023-08-06T04:17:20;6.50;;;4.00;;
7029;SDS011;3556;53.500;10.176;2023-08-06T04:19:47;5.97;;;4.50;;
7029;SDS011;3556;53.500;10.176;2023-08-06T04:22:15;6.00;;;3.60;;
7029;SDS011;3556;53.500;10.176;2023-08-06T04:24:41;5.47;;;4.80;;
7029;SDS011;3556;53.500;10.176;2023-08-06T04:27:07;4.83;;;3.87;;
7029;SDS011;3556;53.500;10.176;2023-08-06T04:29:33;4.20;;;3.67;;
7029;SDS011;3556;53.500;10.176;2023-08-06T04:31:59;5.17;;;3.90;;
7029;SDS011;3556;53.500;10.176;2023-08-06T04:34:24;7.03;;;4.73;;
7029;SDS011;3556;53.500;10.176;2023-08-06T04:36:50;6.97;;;4.40;;
7029;SDS011;3556;53.500;10.176;2023-08-06T04:39:15;8.83;;;4.67;;
7029;SDS011;3556;53.500;10.176;2023-08-06T04:41:41;4.20;;;3.70;;
7029;SDS011;3556;53.500;10.176;2023-08-06T04:44:06;4.33;;;3.77;;
7029;SDS011;3556;53.500;10.176;2023-08-06T04:46:32;10.33;;;3.90;;
7029;SDS011;3556;53.500;10.176;2023-08-06T04:48:58;5.73;;;4.10;;
7029;SDS011;3556;53.500;10.176;2023-08-06T04:51:23;5.33;;;3.67;;
7029;SDS011;3556;53.500;10.176;2023-08-06T04:53:49;5.77;;;4.40;;
7029;SDS011;3556;53.500;10.176;2023-08-06T04:56:14;7.97;;;4.13;;
7029;SDS011;3556;53.500;10.176;2023-08-06T04:58:40;6.90;;;4.10;;
7029;SDS011;3556;53.500;10.176;2023-08-06T05:01:06;7.43;;;3.93;;
7029;SDS011;3556;53.500;10.176;2023-08-06T05:03:32;8.03;;;4.70;;
7029;SDS011;3556;53.500;10.176;2023-08-06T05:05:57;5.80;;;4.33;;
7029;SDS011;3556;53.500;10.176;2023-08-06T05:08:23;6.43;;;4.27;;
7029;SDS011;3556;53.500;10.176;2023-08-06T05:10:48;8.97;;;4.30;;
7029;SDS011;3556;53.500;10.176;2023-08-06T05:13:14;4.97;;;4.03;;
7029;SDS011;3556;53.500;10.176;2023-08-06T05:15:40;5.93;;;4.40;;
7029;SDS011;3556;53.500;10.176;2023-08-06T05:18:07;5.00;;;4.50;;
7029;SDS011;3556;53.500;10.176;2023-08-06T05:20:36;4.90;;;4.13;;
7029;SDS011;3556;53.500;10.176;2023-08-06T05:23:03;5.43;;;3.80;;
7029;SDS011;3556;53.500;10.176;2023-08-06T05:25:29;4.97;;;4.10;;
7029;SDS011;3556;53.500;10.176;2023-08-06T05:27:55;8.43;;;4.70;;
7029;SDS011;3556;53.500;10.176;2023-08-06T05:30:21;7.43;;;4.17;;
7029;SDS011;3556;53.500;10.176;2023-08-06T05:32:46;7.80;;;4.77;;
7029;SDS011;3556;53.500;10.176;2023-08-06T05:35:12;11.13;;;4.53;;
7029;SDS011;3556;53.500;10.176;2023-08-06T05:37:37;6.27;;;4.73;;
7029;SDS011;3556;53.500;10.176;2023-08-06T05:40:03;6.40;;;4.30;;
7029;SDS011;3556;53.500;10.176;2023-08-06T05:42:29;6.57;;;5.00;;
7029;SDS011;3556;53.500;10.176;2023-08-06T05:44:55;8.23;;;4.87;;
7029;SDS011;3556;53.500;10.176;2023-08-06T05:47:21;6.20;;;4.87;;
7029;SDS011;3556;53.500;10.176;2023-08-06T05:49:46;9.53;;;4.97;;
7029;SDS011;3556;53.500;10.176;2023-08-06T05:52:12;11.63;;;4.53;;
7029;SDS011;3556;53.500;10.176;2023-08-06T05:54:38;9.83;;;4.70;;
7029;SDS011;3556;53.500;10.176;2023-08-06T05:57:03;5.90;;;5.00;;
7029;SDS011;3556;53.500;10.176;2023-08-06T05:59:29;9.47;;;4.80;;
7029;SDS011;3556;53.500;10.176;2023-08-06T06:01:55;8.17;;;4.73;;
7029;SDS011;3556;53.500;10.176;2023-08-06T06:04:21;8.57;;;5.03;;
7029;SDS011;3556;53.500;10.176;2023-08-06T06:06:46;6.37;;;5.23;;
7029;SDS011;3556;53.500;10.176;2023-08-06T06:09:12;6.47;;;4.90;;
7029;SDS011;3556;53.500;10.176;2023-08-06T06:11:37;7.73;;;5.20;;
7029;SDS011;3556;53.500;10.176;2023-08-06T06:14:03;9.10;;;5.63;;
7029;SDS011;3556;53.500;10.176;2023-08-06T06:16:29;6.00;;;4.93;;
7029;SDS011;3556;53.500;10.176;2023-08-06T06:18:54;8.27;;;5.20;;
7029;SDS011;3556;53.500;10.176;2023-08-06T06:21:20;7.47;;;5.03;;
7029;SDS011;3556;53.500;10.176;2023-08-06T06:23:46;6.50;;;5.20;;
7029;SDS011;3556;53.500;10.176;2023-08-06T06:26:12;5.70;;;5.10;;
7029;SDS011;3556;53.500;10.176;2023-08-06T06:28:38;6.63;;;4.73;;
7029;SDS011;3556;53.500;10.176;2023-08-06T06:31:04;9.87;;;5.50;;
7029;SDS011;3556;53.500;10.176;2023-08-06T06:33:29;8.20;;;5.83;;
7029;SDS011;3556;53.500;10.176;2023-08-06T06:35:55;7.73;;;5.30;;
7029;SDS011;3556;53.500;10.176;2023-08-06T06:38:20;7.73;;;5.17;;
7029;SDS011;3556;53.500;10.176;2023-08-06T06:40:58;10.53;;;5.60;;
7029;SDS011;3556;53.500;10.176;2023-08-06T06:43:24;10.20;;;5.50;;
7029;SDS011;3556;53.500;10.176;2023-08-06T06:45:55;9.17;;;5.50;;
7029;SDS011;3556;53.500;10.176;2023-08-06T06:48:22;10.13;;;5.60;;
7029;SDS011;3556;53.500;10.176;2023-08-06T06:50:48;8.03;;;5.47;;
7029;SDS011;3556;53.500;10.176;2023-08-06T06:53:14;8.77;;;5.53;;
7029;SDS011;3556;53.500;10.176;2023-08-06T06:55:40;6.47;;;4.73;;
7029;SDS011;3556;53.500;10.176;2023-08-06T06:58:05;6.50;;;5.20;;
7029;SDS011;3556;53.500;10.176;2023-08-06T07:00:31;7.07;;;5.73;;
7029;SDS011;3556;53.500;10.176;2023-08-06T07:02:56;10.20;;;5.97;;
7029;SDS011;3556;53.500;10.176;2023-08-06T07:05:22;11.20;;;5.87;;
7029;SDS011;3556;53.500;10.176;2023-08-06T07:07:47;10.77;;;6.87;;
7029;SDS011;3556;53.500;10.176;2023-08-06T07:10:13;17.33;;;5.83;;
7029;SDS011;3556;53.500;10.176;2023-08-06T07:12:39;12.30;;;6.00;;
7029;SDS011;3556;53.500;10.176;2023-08-06T07:15:05;8.53;;;5.47;;
7029;SDS011;3556;53.500;10.176;2023-08-06T07:17:31;11.73;;;6.07;;
7029;SDS011;3556;53.500;10.176;2023-08-06T07:19:57;7.57;;;5.67;;
7029;SDS011;3556;53.500;10.176;2023-08-06T07:22:22;8.20;;;5.17;;
7029;SDS011;3556;53.500;10.176;2023-08-06T07:24:48;9.20;;;5.80;;
7029;SDS011;3556;53.500;10.176;2023-08-06T07:27:14;8.00;;;5.60;;
7029;SDS011;3556;53.500;10.176;2023-08-06T07:29:39;9.93;;;5.90;;
7029;SDS011;3556;53.500;10.176;2023-08-06T07:32:06;7.57;;;5.83;;
7029;SDS011;3556;53.500;10.176;2023-08-06T07:34:32;11.03;;;5.80;;
7029;SDS011;3556;53.500;10.176;2023-08-06T07:36:58;10.70;;;6.10;;
7029;SDS011;3556;53.500;10.176;2023-08-06T07:39:23;12.27;;;6.23;;
7029;SDS011;3556;53.500;10.176;2023-08-06T07:41:49;11.70;;;6.40;;
7029;SDS011;3556;53.500;10.176;2023-08-06T07:44:15;9.30;;;6.10;;
7029;SDS011;3556;53.500;10.176;2023-08-06T07:46:40;8.93;;;6.30;;
7029;SDS011;3556;53.500;10.176;2023-08-06T07:49:06;16.50;;;6.90;;
7029;SDS011;3556;53.500;10.176;2023-08-06T07:51:32;9.50;;;6.03;;
7029;SDS011;3556;53.500;10.176;2023-08-06T07:53:57;9.63;;;6.83;;
7029;SDS011;3556;53.500;10.176;2023-08-06T07:56:23;10.10;;;6.50;;
7029;SDS011;3556;53.500;10.176;2023-08-06T07:58:49;10.17;;;6.27;;
7029;SDS011;3556;53.500;10.176;2023-08-06T08:01:14;12.37;;;6.73;;
7029;SDS011;3556;53.500;10.176;2023-08-06T08:03:40;8.90;;;5.87;;
7029;SDS011;3556;53.500;10.176;2023-08-06T08:06:05;10.67;;;6.50;;
7029;SDS011;3556;53.500;10.176;2023-08-06T08:08:31;15.10;;;6.40;;
7029;SDS011;3556;53.500;10.176;2023-08-06T08:10:57;14.37;;;6.20;;
7029;SDS011;3556;53.500;10.176;2023-08-06T08:13:24;13.90;;;6.17;;
7029;SDS011;3556;53.500;10.176;2023-08-06T08:15:49;9.87;;;6.37;;
7029;SDS011;3556;53.500;10.176;2023-08-06T08:18:15;9.00;;;5.80;;
7029;SDS011;3556;53.500;10.176;2023-08-06T08:20:40;12.60;;;6.73;;
7029;SDS011;3556;53.500;10.176;2023-08-06T08:23:06;18.07;;;6.80;;
7029;SDS011;3556;53.500;10.176;2023-08-06T08:25:32;10.00;;;6.67;;
7029;SDS011;3556;53.500;10.176;2023-08-06T08:27:59;12.03;;;6.33;;
7029;SDS011;3556;53.500;10.176;2023-08-06T08:30:24;10.47;;;6.33;;
7029;SDS011;3556;53.500;10.176;2023-08-06T08:32:50;8.60;;;6.10;;
7029;SDS011;3556;53.500;10.176;2023-08-06T08:35:16;9.73;;;6.10;;
7029;SDS011;3556;53.500;10.176;2023-08-06T08:37:42;11.43;;;6.40;;
7029;SDS011;3556;53.500;10.176;2023-08-06T08:40:08;7.87;;;6.17;;
7029;SDS011;3556;53.500;10.176;2023-08-06T08:42:35;13.77;;;5.77;;
7029;SDS011;3556;53.500;10.176;2023-08-06T08:45:01;8.80;;;6.27;;
7029;SDS011;3556;53.500;10.176;2023-08-06T08:47:29;7.80;;;6.33;;
7029;SDS011;3556;53.500;10.176;2023-08-06T08:49:56;9.77;;;6.10;;
7029;SDS011;3556;53.500;10.176;2023-08-06T08:52:23;13.90;;;6.67;;
7029;SDS011;3556;53.500;10.176;2023-08-06T08:54:50;9.07;;;5.70;;
7029;SDS011;3556;53.500;10.176;2023-08-06T08:57:18;8.13;;;5.63;;
7029;SDS011;3556;53.500;10.176;2023-08-06T08:59:45;9.77;;;5.30;;
7029;SDS011;3556;53.500;10.176;2023-08-06T09:02:11;11.93;;;5.90;;
7029;SDS011;3556;53.500;10.176;2023-08-06T09:04:40;12.13;;;6.03;;
7029;SDS011;3556;53.500;10.176;2023-08-06T09:07:07;11.63;;;5.90;;
7029;SDS011;3556;53.500;10.176;2023-08-06T09:09:38;9.20;;;6.13;;
7029;SDS011;3556;53.500;10.176;2023-08-06T09:12:07;9.73;;;6.57;;
7029;SDS011;3556;53.500;10.176;2023-08-06T09:14:37;10.87;;;6.93;;
7029;SDS011;3556;53.500;10.176;2023-08-06T09:17:03;13.87;;;6.80;;
7029;SDS011;3556;53.500;10.176;2023-08-06T09:19:31;11.50;;;6.50;;
7029;SDS011;3556;53.500;10.176;2023-08-06T09:21:56;8.27;;;5.80;;
7029;SDS011;3556;53.500;10.176;2023-08-06T09:24:22;7.80;;;6.13;;
7029;SDS011;3556;53.500;10.176;2023-08-06T09:26:48;14.37;;;6.97;;
7029;SDS011;3556;53.500;10.176;2023-08-06T09:29:14;10.67;;;7.13;;
7029;SDS011;3556;53.500;10.176;2023-08-06T09:31:49;13.20;;;7.00;;
7029;SDS011;3556;53.500;10.176;2023-08-06T09:34:22;10.30;;;6.60;;
7029;SDS011;3556;53.500;10.176;2023-08-06T09:36:52;8.70;;;7.13;;
7029;SDS011;3556;53.500;10.176;2023-08-06T09:39:21;11.30;;;7.50;;
7029;SDS011;3556;53.500;10.176;2023-08-06T09:41:52;10.03;;;7.20;;
7029;SDS011;3556;53.500;10.176;2023-08-06T09:44:24;8.50;;;6.60;;
7029;SDS011;3556;53.500;10.176;2023-08-06T09:46:57;9.77;;;7.50;;
7029;SDS011;3556;53.500;10.176;2023-08-06T09:51:58;10.83;;;7.27;;
7029;SDS011;3556;53.500;10.176;2023-08-06T09:54:28;10.40;;;7.57;;
7029;SDS011;3556;53.500;10.176;2023-08-06T09:56:55;10.90;;;7.27;;
7029;SDS011;3556;53.500;10.176;2023-08-06T09:59:24;17.17;;;8.77;;
7029;SDS011;3556;53.500;10.176;2023-08-06T10:01:50;12.10;;;7.80;;
7029;SDS011;3556;53.500;10.176;2023-08-06T10:04:16;9.83;;;7.33;;
7029;SDS011;3556;53.500;10.176;2023-08-06T10:06:43;9.70;;;7.40;;
7029;SDS011;3556;53.500;10.176;2023-08-06T10:09:12;10.90;;;7.23;;
7029;SDS011;3556;53.500;10.176;2023-08-06T10:11:38;9.80;;;7.50;;
7029;SDS011;3556;53.500;10.176;2023-08-06T10:14:12;9.33;;;6.97;;
7029;SDS011;3556;53.500;10.176;2023-08-06T10:16:41;10.70;;;6.87;;
7029;SDS011;3556;53.500;10.176;2023-08-06T10:19:09;11.93;;;7.47;;
7029;SDS011;3556;53.500;10.176;2023-08-06T10:21:39;9.37;;;7.20;;
7029;SDS011;3556;53.500;10.176;2023-08-06T10:24:08;9.93;;;7.33;;
7029;SDS011;3556;53.500;10.176;2023-08-06T10:26:36;7.90;;;6.53;;
7029;SDS011;3556;53.500;10.176;2023-08-06T10:29:34;11.50;;;7.37;;
7029;SDS011;3556;53.500;10.176;2023-08-06T10:32:01;10.67;;;7.03;;
7029;SDS011;3556;53.500;10.176;2023-08-06T10:35:12;9.70;;;6.80;;
7029;SDS011;3556;53.500;10.176;2023-08-06T10:37:23;10.93;;;6.53;;
7029;SDS011;3556;53.500;10.176;2023-08-06T10:39:50;8.40;;;6.13;;
7029;SDS011;3556;53.500;10.176;2023-08-06T10:42:22;9.00;;;6.63;;
7029;SDS011;3556;53.500;10.176;2023-08-06T10:47:38;10.30;;;5.60;;
7029;SDS011;3556;53.500;10.176;2023-08-06T10:50:07;7.47;;;6.00;;
7029;SDS011;3556;53.500;10.176;2023-08-06T10:52:35;6.37;;;5.60;;
7029;SDS011;3556;53.500;10.176;2023-08-06T10:55:01;6.70;;;6.00;;
7029;SDS011;3556;53.500;10.176;2023-08-06T10:57:27;7.30;;;6.10;;
7029;SDS011;3556;53.500;10.176;2023-08-06T10:59:52;8.87;;;6.07;;
7029;SDS011;3556;53.500;10.176;2023-08-06T11:02:18;7.27;;;6.03;;
7029;SDS011;3556;53.500;10.176;2023-08-06T11:04:44;7.67;;;6.00;;
7029;SDS011;3556;53.500;10.176;2023-08-06T11:07:09;6.77;;;5.60;;
7029;SDS011;3556;53.500;10.176;2023-08-06T11:09:35;7.30;;;6.20;;
7029;SDS011;3556;53.500;10.176;2023-08-06T11:12:02;7.30;;;5.93;;
7029;SDS011;3556;53.500;10.176;2023-08-06T11:14:30;8.10;;;6.13;;
7029;SDS011;3556;53.500;10.176;2023-08-06T11:16:55;7.43;;;6.27;;
7029;SDS011;3556;53.500;10.176;2023-08-06T11:19:22;7.90;;;5.77;;
7029;SDS011;3556;53.500;10.176;2023-08-06T11:21:49;8.50;;;5.93;;
7029;SDS011;3556;53.500;10.176;2023-08-06T11:24:16;7.23;;;6.20;;
7029;SDS011;3556;53.500;10.176;2023-08-06T11:26:42;8.03;;;5.60;;
7029;SDS011;3556;53.500;10.176;2023-08-06T11:29:09;10.17;;;6.30;;
7029;SDS011;3556;53.500;10.176;2023-08-06T11:31:35;7.60;;;5.80;;
7029;SDS011;3556;53.500;10.176;2023-08-06T11:34:01;8.63;;;6.67;;
7029;SDS011;3556;53.500;10.176;2023-08-06T11:36:34;6.30;;;5.53;;
7029;SDS011;3556;53.500;10.176;2023-08-06T11:39:05;7.10;;;5.53;;
7029;SDS011;3556;53.500;10.176;2023-08-06T11:41:31;10.13;;;5.63;;
7029;SDS011;3556;53.500;10.176;2023-08-06T11:43:57;9.17;;;6.47;;
7029;SDS011;3556;53.500;10.176;2023-08-06T11:46:24;7.50;;;5.97;;
7029;SDS011;3556;53.500;10.176;2023-08-06T11:48:54;6.53;;;5.80;;
7029;SDS011;3556;53.500;10.176;2023-08-06T11:51:26;6.10;;;5.47;;
7029;SDS011;3556;53.500;10.176;2023-08-06T11:53:56;7.37;;;6.07;;
7029;SDS011;3556;53.500;10.176;2023-08-06T11:56:25;8.60;;;5.83;;
7029;SDS011;3556;53.500;10.176;2023-08-06T11:58:51;7.40;;;5.33;;
7029;SDS011;3556;53.500;10.176;2023-08-06T12:01:17;7.13;;;5.73;;
7029;SDS011;3556;53.500;10.176;2023-08-06T12:03:43;6.40;;;5.63;;
7029;SDS011;3556;53.500;10.176;2023-08-06T12:06:09;9.90;;;6.20;;
7029;SDS011;3556;53.500;10.176;2023-08-06T12:08:35;9.37;;;6.37;;
7029;SDS011;3556;53.500;10.176;2023-08-06T12:11:00;9.47;;;6.80;;
7029;SDS011;3556;53.500;10.176;2023-08-06T12:13:26;9.07;;;6.57;;
7029;SDS011;3556;53.500;10.176;2023-08-06T12:15:51;9.20;;;6.63;;
7029;SDS011;3556;53.500;10.176;2023-08-06T12:18:19;6.90;;;6.13;;
7029;SDS011;3556;53.500;10.176;2023-08-06T12:20:44;7.30;;;6.10;;
7029;SDS011;3556;53.500;10.176;2023-08-06T12:23:10;7.90;;;5.70;;
7029;SDS011;3556;53.500;10.176;2023-08-06T12:25:40;7.57;;;6.07;;
7029;SDS011;3556;53.500;10.176;2023-08-06T12:28:06;12.83;;;6.97;;
7029;SDS011;3556;53.500;10.176;2023-08-06T12:30:32;12.33;;;6.40;;
7029;SDS011;3556;53.500;10.176;2023-08-06T12:32:58;9.70;;;6.20;;
7029;SDS011;3556;53.500;10.176;2023-08-06T12:35:23;7.77;;;6.03;;
7029;SDS011;3556;53.500;10.176;2023-08-06T12:37:50;8.70;;;6.70;;
7029;SDS011;3556;53.500;10.176;2023-08-06T12:40:19;9.20;;;6.27;;
7029;SDS011;3556;53.500;10.176;2023-08-06T12:42:47;7.67;;;6.37;;
7029;SDS011;3556;53.500;10.176;2023-08-06T12:45:14;7.00;;;5.57;;
7029;SDS011;3556;53.500;10.176;2023-08-06T12:47:40;6.53;;;5.17;;
7029;SDS011;3556;53.500;10.176;2023-08-06T12:50:06;10.57;;;6.20;;
7029;SDS011;3556;53.500;10.176;2023-08-06T12:52:32;7.20;;;6.03;;
7029;SDS011;3556;53.500;10.176;2023-08-06T12:54:57;8.07;;;5.90;;
7029;SDS011;3556;53.500;10.176;2023-08-06T12:57:23;9.03;;;5.93;;
7029;SDS011;3556;53.500;10.176;2023-08-06T12:59:49;8.07;;;5.90;;
7029;SDS011;3556;53.500;10.176;2023-08-06T13:02:14;8.23;;;6.27;;
7029;SDS011;3556;53.500;10.176;2023-08-06T13:04:40;6.27;;;5.37;;
7029;SDS011;3556;53.500;10.176;2023-08-06T13:07:05;7.40;;;5.27;;
7029;SDS011;3556;53.500;10.176;2023-08-06T13:09:31;5.77;;;5.00;;
7029;SDS011;3556;53.500;10.176;2023-08-06T13:11:57;6.20;;;5.07;;
7029;SDS011;3556;53.500;10.176;2023-08-06T13:14:24;6.37;;;5.73;;
7029;SDS011;3556;53.500;10.176;2023-08-06T13:16:50;6.33;;;5.67;;
7029;SDS011;3556;53.500;10.176;2023-08-06T13:19:16;8.80;;;5.73;;
7029;SDS011;3556;53.500;10.176;2023-08-06T13:24:07;8.27;;;6.10;;
7029;SDS011;3556;53.500;10.176;2023-08-06T13:26:33;12.20;;;5.43;;
7029;SDS011;3556;53.500;10.176;2023-08-06T13:29:00;6.37;;;5.27;;
7029;SDS011;3556;53.500;10.176;2023-08-06T13:31:26;11.93;;;5.67;;
7029;SDS011;3556;53.500;10.176;2023-08-06T13:33:54;10.57;;;6.20;;
7029;SDS011;3556;53.500;10.176;2023-08-06T13:36:20;6.70;;;5.30;;
7029;SDS011;3556;53.500;10.176;2023-08-06T13:38:47;6.97;;;6.10;;
7029;SDS011;3556;53.500;10.176;2023-08-06T13:41:12;6.30;;;5.40;;
7029;SDS011;3556;53.500;10.176;2023-08-06T13:43:38;6.23;;;5.33;;
7029;SDS011;3556;53.500;10.176;2023-08-06T13:46:04;5.60;;;5.07;;
7029;SDS011;3556;53.500;10.176;2023-08-06T13:48:30;7.37;;;5.93;;
7029;SDS011;3556;53.500;10.176;2023-08-06T13:50:55;9.93;;;6.00;;
7029;SDS011;3556;53.500;10.176;2023-08-06T13:53:21;6.77;;;5.70;;
7029;SDS011;3556;53.500;10.176;2023-08-06T13:55:46;11.43;;;5.33;;
7029;SDS011;3556;53.500;10.176;2023-08-06T13:58:12;7.83;;;5.77;;
7029;SDS011;3556;53.500;10.176;2023-08-06T14:00:38;7.90;;;5.90;;
7029;SDS011;3556;53.500;10.176;2023-08-06T14:03:03;9.00;;;5.90;;
7029;SDS011;3556;53.500;10.176;2023-08-06T14:05:29;6.07;;;5.17;;
7029;SDS011;3556;53.500;10.176;2023-08-06T14:07:54;10.27;;;5.70;;
7029;SDS011;3556;53.500;10.176;2023-08-06T14:10:20;11.67;;;5.67;;
7029;SDS011;3556;53.500;10.176;2023-08-06T14:12:46;8.63;;;5.47;;
7029;SDS011;3556;53.500;10.176;2023-08-06T14:15:11;5.40;;;4.90;;
7029;SDS011;3556;53.500;10.176;2023-08-06T14:17:37;10.37;;;5.60;;
7029;SDS011;3556;53.500;10.176;2023-08-06T14:20:03;7.50;;;5.73;;
7029;SDS011;3556;53.500;10.176;2023-08-06T14:22:30;6.63;;;5.90;;
7029;SDS011;3556;53.500;10.176;2023-08-06T14:24:57;7.77;;;5.70;;
7029;SDS011;3556;53.500;10.176;2023-08-06T14:27:23;7.60;;;5.27;;
7029;SDS011;3556;53.500;10.176;2023-08-06T14:29:49;10.07;;;5.40;;
7029;SDS011;3556;53.500;10.176;2023-08-06T14:32:14;6.87;;;5.40;;
7029;SDS011;3556;53.500;10.176;2023-08-06T14:34:43;6.00;;;5.20;;
7029;SDS011;3556;53.500;10.176;2023-08-06T14:37:11;6.50;;;4.90;;
7029;SDS011;3556;53.500;10.176;2023-08-06T14:39:37;6.53;;;4.43;;
7029;SDS011;3556;53.500;10.176;2023-08-06T14:42:03;6.37;;;3.40;;
7029;SDS011;3556;53.500;10.176;2023-08-06T14:44:29;5.47;;;4.17;;
7029;SDS011;3556;53.500;10.176;2023-08-06T14:46:55;6.93;;;3.50;;
7029;SDS011;3556;53.500;10.176;2023-08-06T14:49:20;9.60;;;4.73;;
7029;SDS011;3556;53.500;10.176;2023-08-06T14:51:46;5.50;;;3.70;;
7029;SDS011;3556;53.500;10.176;2023-08-06T14:54:12;4.17;;;3.77;;
7029;SDS011;3556;53.500;10.176;2023-08-06T14:56:37;6.27;;;3.70;;
7029;SDS011;3556;53.500;10.176;2023-08-06T14:59:03;4.00;;;3.60;;
7029;SDS011;3556;53.500;10.176;2023-08-06T15:01:29;5.30;;;3.20;;
7029;SDS011;3556;53.500;10.176;2023-08-06T15:03:54;4.33;;;3.93;;
7029;SDS011;3556;53.500;10.176;2023-08-06T15:06:20;5.43;;;3.73;;
7029;SDS011;3556;53.500;10.176;2023-08-06T15:08:45;5.73;;;3.37;;